createdAt,value
2023-02-11T00:01:32.049Z,43.00
2023-02-11T00:04:01.988Z,47.25
2023-02-11T00:06:31.044Z,43.10
2023-02-11T00:08:59.074Z,39.85
2023-02-11T00:11:30.228Z,43.67
2023-02-11T00:13:58.962Z,41.95
2023-02-11T00:16:26.537Z,41.55
2023-02-11T00:18:54.104Z,42.40
2023-02-11T00:21:26.419Z,39.95
2023-02-11T00:23:57.030Z,40.85
2023-02-11T00:26:27.808Z,41.35
2023-02-11T00:28:56.948Z,45.55
2023-02-11T00:31:25.260Z,35.40
2023-02-11T00:33:53.144Z,42.38
2023-02-11T00:36:24.328Z,45.38
2023-02-11T00:38:53.021Z,41.15
2023-02-11T00:41:21.968Z,40.13
2023-02-11T00:43:50.132Z,40.40
2023-02-11T00:46:17.652Z,32.55
2023-02-11T00:48:45.272Z,34.40
2023-02-11T00:51:13.316Z,45.90
2023-02-11T00:53:42.220Z,42.38
2023-02-11T00:56:10.389Z,40.17
2023-02-11T00:58:38.286Z,35.08
2023-02-11T01:01:05.841Z,34.63
2023-02-11T01:03:33.514Z,35.75
2023-02-11T01:06:01.239Z,36.38
2023-02-11T01:08:28.836Z,31.60
2023-02-11T01:10:59.423Z,38.53
2023-02-11T01:13:27.765Z,41.80
2023-02-11T01:15:55.371Z,36.10
2023-02-11T01:18:23.007Z,36.38
2023-02-11T01:20:51.898Z,37.85
2023-02-11T01:23:19.485Z,32.95
2023-02-11T01:25:47.439Z,37.35
2023-02-11T01:28:19.594Z,32.08
2023-02-11T01:30:47.663Z,33.55
2023-02-11T01:33:15.300Z,36.55
2023-02-11T01:35:43.495Z,30.02
2023-02-11T01:38:17.169Z,32.33
2023-02-11T01:40:48.606Z,35.17
2023-02-11T01:43:16.090Z,32.20
2023-02-11T01:45:58.436Z,38.05
2023-02-11T01:48:30.767Z,34.47
2023-02-11T01:51:03.784Z,31.20
2023-02-11T01:53:50.739Z,33.55
2023-02-11T01:56:38.974Z,30.50
2023-02-11T01:59:12.392Z,34.30
2023-02-11T02:01:44.885Z,34.70
2023-02-11T02:04:14.003Z,34.40
2023-02-11T02:06:46.821Z,32.42
2023-02-11T02:09:21.311Z,30.83
2023-02-11T02:11:48.908Z,32.03
2023-02-11T02:14:16.378Z,33.85
2023-02-11T02:16:45.716Z,37.25
2023-02-11T02:19:41.734Z,37.03
2023-02-11T02:22:35.435Z,35.10
2023-02-11T02:25:28.875Z,33.97
2023-02-11T02:28:12.954Z,33.60
2023-02-11T02:30:54.137Z,40.20
2023-02-11T02:33:31.591Z,34.15
2023-02-11T02:36:09.972Z,38.67
2023-02-11T02:38:42.939Z,34.10
2023-02-11T02:41:13.943Z,37.63
2023-02-11T02:43:45.071Z,34.95
2023-02-11T02:46:16.766Z,44.25
2023-02-11T02:48:46.368Z,43.08
2023-02-11T02:51:47.632Z,34.13
2023-02-11T02:54:44.753Z,43.10
2023-02-11T02:57:24.600Z,39.10
2023-02-11T03:00:07.211Z,37.22
2023-02-11T03:02:41.316Z,33.47
2023-02-11T03:05:17.016Z,32.22
2023-02-11T03:07:51.753Z,36.65
2023-02-11T03:10:24.371Z,32.15
2023-02-11T03:12:55.224Z,32.50
2023-02-11T03:15:24.741Z,33.13
2023-02-11T03:17:55.419Z,39.05
2023-02-11T03:20:24.719Z,35.17
2023-02-11T03:22:59.034Z,40.50
2023-02-11T03:25:31.126Z,34.83
2023-02-11T03:28:06.342Z,37.15
2023-02-11T03:33:09.902Z,34.70
2023-02-11T03:35:43.338Z,36.40
2023-02-11T03:38:17.497Z,41.00
2023-02-11T03:40:46.452Z,30.38
2023-02-11T03:43:18.028Z,34.72
2023-02-11T03:45:48.372Z,31.08
2023-02-11T03:48:20.858Z,33.63
2023-02-11T03:50:53.120Z,39.20
2023-02-11T03:53:22.609Z,35.67
2023-02-11T03:55:52.803Z,44.35
2023-02-11T03:58:20.558Z,36.40
2023-02-11T04:00:48.068Z,40.50
2023-02-11T04:03:15.607Z,37.08
2023-02-11T04:05:43.150Z,39.65
2023-02-11T04:08:12.068Z,33.85
2023-02-11T04:10:39.545Z,39.08
2023-02-11T04:13:07.038Z,39.85
2023-02-11T04:15:34.539Z,40.97
2023-02-11T04:18:03.239Z,35.40
2023-02-11T04:20:30.735Z,36.60
2023-02-11T04:22:58.194Z,40.17
2023-02-11T04:25:27.177Z,39.95
2023-02-11T04:27:54.799Z,37.97
2023-02-11T04:30:22.694Z,44.58
2023-02-11T04:32:50.138Z,33.42
2023-02-11T04:35:17.693Z,49.03
2023-02-11T04:37:45.151Z,46.80
2023-02-11T04:40:12.957Z,36.60
2023-02-11T04:42:41.806Z,42.58
2023-02-11T04:45:10.063Z,38.03
2023-02-11T04:47:37.890Z,43.78
2023-02-11T04:50:06.140Z,40.88
2023-02-11T04:52:33.611Z,41.45
2023-02-11T04:55:01.087Z,53.65
2023-02-11T04:57:28.666Z,36.67
2023-02-11T04:59:57.457Z,43.10
2023-02-11T05:02:24.968Z,45.92
2023-02-11T05:04:52.402Z,48.47
2023-02-11T05:07:19.900Z,42.97
2023-02-11T05:09:47.375Z,43.30
2023-02-11T05:12:15.850Z,38.20
2023-02-11T05:14:43.336Z,48.45
2023-02-11T05:17:12.258Z,39.30
2023-02-11T05:19:39.726Z,37.30
2023-02-11T05:22:07.196Z,39.15
2023-02-11T05:24:35.042Z,46.08
2023-02-11T05:27:03.567Z,43.97
2023-02-11T05:29:31.311Z,33.15
2023-02-11T05:31:59.956Z,44.13
2023-02-11T05:34:28.846Z,39.33
2023-02-11T05:36:56.385Z,40.08
2023-02-11T05:39:23.877Z,41.20
2023-02-11T05:41:51.402Z,36.80
2023-02-11T05:44:18.846Z,34.33
2023-02-11T05:46:46.447Z,31.27
2023-02-11T05:49:13.940Z,34.33
2023-02-11T05:51:42.768Z,38.30
2023-02-11T05:54:10.439Z,33.03
2023-02-11T05:56:37.937Z,32.38
2023-02-11T05:59:05.528Z,38.80
2023-02-11T06:01:33.079Z,37.95
2023-02-11T06:04:00.626Z,35.90
2023-02-11T06:06:28.182Z,38.33
2023-02-11T06:08:56.996Z,37.90
2023-02-11T06:11:24.505Z,38.85
2023-02-11T06:13:52.030Z,40.05
2023-02-11T06:16:19.527Z,35.10
2023-02-11T06:18:46.982Z,38.00
2023-02-11T06:21:14.678Z,31.90
2023-02-11T06:23:43.039Z,35.88
2023-02-11T06:26:18.581Z,35.08
2023-02-11T06:28:46.190Z,31.77
2023-02-11T06:31:14.339Z,36.38
2023-02-11T06:33:41.953Z,33.10
2023-02-11T06:36:15.043Z,36.70
2023-02-11T06:38:42.917Z,37.03
2023-02-11T06:41:12.733Z,35.42
2023-02-11T06:43:41.243Z,37.22
2023-02-11T06:46:10.268Z,32.60
2023-02-11T06:48:37.800Z,40.15
2023-02-11T06:51:09.674Z,41.85
2023-02-11T06:53:38.924Z,37.70
2023-02-11T06:56:07.963Z,36.42
2023-02-11T06:58:37.549Z,45.28
2023-02-11T07:01:07.122Z,39.38
2023-02-11T07:03:36.064Z,35.13
2023-02-11T07:06:04.462Z,40.40
2023-02-11T07:08:32.180Z,45.03
2023-02-11T07:10:59.671Z,42.28
2023-02-11T07:13:27.220Z,45.40
2023-02-11T07:15:56.072Z,42.15
2023-02-11T07:18:23.551Z,54.42
2023-02-11T07:20:51.003Z,47.20
2023-02-11T07:23:18.439Z,43.78
2023-02-11T07:25:45.876Z,50.13
2023-02-11T07:28:13.371Z,55.53
2023-02-11T07:30:40.873Z,64.22
2023-02-11T07:33:09.690Z,52.55
2023-02-11T07:35:37.138Z,66.00
2023-02-11T07:38:04.703Z,61.33
2023-02-11T07:40:32.152Z,58.65
2023-02-11T07:43:01.596Z,53.55
2023-02-11T07:45:29.164Z,53.40
2023-02-11T07:47:56.646Z,56.22
2023-02-11T07:50:25.464Z,60.90
2023-02-11T07:52:52.956Z,61.13
2023-02-11T07:55:20.447Z,61.22
2023-02-11T07:57:47.905Z,69.03
2023-02-11T08:00:18.847Z,64.93
2023-02-11T08:02:48.229Z,64.82
2023-02-11T08:05:15.839Z,64.63
2023-02-11T08:07:44.683Z,63.70
2023-02-11T08:10:12.304Z,62.97
2023-02-11T08:12:39.788Z,61.33
2023-02-11T08:15:07.707Z,64.15
2023-02-11T08:17:36.386Z,61.33
2023-02-11T08:20:04.541Z,58.53
2023-02-11T08:22:32.545Z,72.95
2023-02-11T08:25:01.491Z,73.28
2023-02-11T08:27:29.298Z,70.70
2023-02-11T08:29:57.034Z,72.15
2023-02-11T08:32:25.408Z,65.05
2023-02-11T08:34:53.066Z,64.28
2023-02-11T08:37:22.662Z,66.28
2023-02-11T08:39:50.116Z,57.35
2023-02-11T08:42:18.909Z,68.45
2023-02-11T08:44:46.631Z,55.58
2023-02-11T08:47:14.077Z,69.85
2023-02-11T08:49:42.283Z,56.45
2023-02-11T08:52:09.762Z,60.90
2023-02-11T08:54:38.083Z,59.78
2023-02-11T08:57:06.105Z,62.83
2023-02-11T08:59:34.956Z,70.85
2023-02-11T09:02:02.431Z,66.53
2023-02-11T09:04:29.921Z,57.70
2023-02-11T09:06:57.934Z,64.78
2023-02-11T09:09:25.387Z,54.33
2023-02-11T09:11:57.077Z,61.55
2023-02-11T09:14:25.583Z,69.78
2023-02-11T09:16:54.811Z,66.53
2023-02-11T09:19:22.949Z,66.72
2023-02-11T09:21:50.684Z,69.25
2023-02-11T09:24:18.372Z,64.72
2023-02-11T09:26:45.814Z,73.60
2023-02-11T09:29:13.631Z,64.00
2023-02-11T09:31:41.302Z,65.22
2023-02-11T09:34:12.306Z,69.10
2023-02-11T09:36:41.446Z,67.82
2023-02-11T09:39:12.477Z,66.10
2023-02-11T09:42:00.563Z,59.35
2023-02-11T09:44:30.478Z,79.78
2023-02-11T09:47:01.426Z,69.32
2023-02-11T09:49:37.833Z,65.82
2023-02-11T09:52:09.072Z,62.97
2023-02-11T09:54:41.346Z,67.38
2023-02-11T09:57:22.911Z,59.75
2023-02-11T09:59:55.422Z,65.22
2023-02-11T10:02:29.855Z,62.70
2023-02-11T10:05:19.644Z,69.03
2023-02-11T10:07:53.361Z,69.65
2023-02-11T10:10:38.566Z,63.08
2023-02-11T10:13:37.358Z,72.50
2023-02-11T10:16:17.907Z,69.70
2023-02-11T10:19:05.173Z,63.20
2023-02-11T10:21:41.515Z,68.68
2023-02-11T10:24:13.390Z,67.57
2023-02-11T10:26:41.727Z,71.25
2023-02-11T10:29:19.770Z,61.03
2023-02-11T10:31:48.221Z,69.35
2023-02-11T10:34:16.399Z,69.65
2023-02-11T10:36:46.387Z,59.17
2023-02-11T10:39:16.138Z,69.25
2023-02-11T10:41:46.572Z,60.40
2023-02-11T10:44:26.576Z,61.30
2023-02-11T10:46:56.429Z,63.03
2023-02-11T10:49:39.371Z,65.38
2023-02-11T10:52:16.880Z,68.90
2023-02-11T10:54:56.890Z,64.20
2023-02-11T10:57:29.053Z,62.78
2023-02-11T11:00:00.495Z,71.53
2023-02-11T11:02:34.306Z,73.22
2023-02-11T11:05:04.339Z,70.75
2023-02-11T11:07:34.921Z,79.45
2023-02-11T11:10:05.207Z,63.75
2023-02-11T11:12:47.468Z,69.82
2023-02-11T11:15:18.767Z,70.78
2023-02-11T11:17:46.761Z,60.70
2023-02-11T11:20:23.061Z,68.78
2023-02-11T11:22:55.499Z,66.90
2023-02-11T11:25:26.577Z,67.47
2023-02-11T11:27:56.693Z,62.00
2023-02-11T11:30:28.472Z,69.78
2023-02-11T11:32:56.470Z,57.80
2023-02-11T11:35:27.197Z,63.70
2023-02-11T11:38:01.661Z,71.60
2023-02-11T11:40:31.684Z,57.47
2023-02-11T11:43:14.486Z,68.43
2023-02-11T11:45:54.632Z,58.42
2023-02-11T11:48:25.767Z,64.95
2023-02-11T11:50:55.792Z,69.15
2023-02-11T11:53:34.179Z,65.35
2023-02-11T11:56:04.618Z,60.95
2023-02-11T11:58:33.037Z,68.97
2023-02-11T12:01:16.595Z,71.43
2023-02-11T12:04:10.661Z,63.53
2023-02-11T12:06:51.681Z,68.07
2023-02-11T12:09:31.303Z,72.97
2023-02-11T12:12:16.046Z,61.30
2023-02-11T12:14:54.026Z,66.45
2023-02-11T12:17:32.482Z,75.50
2023-02-11T12:20:14.018Z,69.35
2023-02-11T12:22:54.355Z,70.68
2023-02-11T12:25:28.082Z,79.93
2023-02-11T12:28:05.862Z,71.88
2023-02-11T12:30:59.417Z,71.43
2023-02-11T12:33:40.915Z,77.03
2023-02-11T12:36:16.627Z,82.68
2023-02-11T12:39:01.119Z,76.32
2023-02-11T12:42:02.432Z,76.55
2023-02-11T12:44:41.522Z,69.68
2023-02-11T12:47:21.775Z,81.70
2023-02-11T12:50:02.960Z,65.32
2023-02-11T12:52:51.346Z,64.93
2023-02-11T12:55:23.588Z,78.60
2023-02-11T12:57:56.712Z,77.15
2023-02-11T13:00:26.330Z,72.53
2023-02-11T13:03:00.956Z,78.32
2023-02-11T13:05:32.920Z,80.18
2023-02-11T13:08:05.492Z,75.05
2023-02-11T13:10:35.785Z,79.13
2023-02-11T13:13:17.399Z,84.03
2023-02-11T13:15:47.888Z,79.57
2023-02-11T13:18:26.104Z,73.18
2023-02-11T13:21:00.348Z,79.57
2023-02-11T13:23:41.578Z,74.15
2023-02-11T13:26:18.233Z,83.03
2023-02-11T13:28:52.861Z,84.43
2023-02-11T13:31:20.910Z,80.43
2023-02-11T13:33:50.429Z,78.50
2023-02-11T13:36:20.950Z,79.00
2023-02-11T13:39:03.507Z,78.88
2023-02-11T13:41:37.631Z,92.50
2023-02-11T13:44:23.149Z,89.43
2023-02-11T13:46:57.255Z,83.85
2023-02-11T13:49:30.732Z,79.00
2023-02-11T13:51:59.817Z,82.25
2023-02-11T13:54:31.678Z,81.75
2023-02-11T13:57:33.562Z,95.78
2023-02-11T14:00:09.529Z,83.07
2023-02-11T14:02:55.737Z,85.60
2023-02-11T14:05:47.072Z,83.63
2023-02-11T14:08:39.575Z,88.80
2023-02-11T14:11:12.191Z,86.88
2023-02-11T14:14:14.986Z,80.60
2023-02-11T14:17:12.308Z,95.88
2023-02-11T14:19:43.991Z,84.47
2023-02-11T14:22:16.433Z,84.25
2023-02-11T14:24:51.864Z,74.97
2023-02-11T14:27:29.527Z,87.18
2023-02-11T14:30:21.054Z,79.93
2023-02-11T14:33:05.199Z,88.18
2023-02-11T14:35:41.883Z,82.68
2023-02-11T14:38:21.130Z,78.28
2023-02-11T14:40:55.893Z,84.45
2023-02-11T14:43:29.533Z,82.10
2023-02-11T14:45:59.484Z,91.45
2023-02-11T14:48:31.318Z,80.22
2023-02-11T14:51:04.273Z,78.43
2023-02-11T14:53:34.107Z,74.88
2023-02-11T14:56:01.747Z,69.72
2023-02-11T14:58:30.889Z,75.72
2023-02-11T15:01:00.750Z,80.57
2023-02-11T15:03:31.398Z,73.82
2023-02-11T15:06:02.696Z,78.15
2023-02-11T15:08:31.742Z,78.65
2023-02-11T15:11:01.798Z,78.38
2023-02-11T15:13:32.219Z,84.90
2023-02-11T15:16:03.313Z,73.57
2023-02-11T15:18:38.235Z,71.65
2023-02-11T15:21:08.204Z,75.22
2023-02-11T15:23:36.229Z,70.72
2023-02-11T15:26:13.008Z,73.50
2023-02-11T15:28:52.407Z,65.28
2023-02-11T15:31:23.088Z,65.47
2023-02-11T15:33:51.433Z,62.45
2023-02-11T15:36:24.368Z,69.75
2023-02-11T15:39:17.002Z,61.25
2023-02-11T15:41:45.269Z,63.33
2023-02-11T15:44:28.433Z,65.57
2023-02-11T15:46:56.232Z,56.25
2023-02-11T15:49:25.396Z,59.97
2023-02-11T15:51:56.834Z,56.05
2023-02-11T15:54:27.269Z,60.45
2023-02-11T15:56:59.851Z,62.47
2023-02-11T15:59:31.516Z,53.85
2023-02-11T16:02:06.475Z,51.97
2023-02-11T16:04:34.175Z,53.30
2023-02-11T16:07:03.052Z,56.88
2023-02-11T16:09:35.565Z,64.60
2023-02-11T16:12:07.340Z,63.17
2023-02-11T16:14:39.017Z,59.97
2023-02-11T16:17:10.228Z,55.70
2023-02-11T16:19:43.706Z,67.13
2023-02-11T16:22:18.441Z,155.73
2023-02-11T16:24:49.188Z,163.85
2023-02-11T16:27:23.249Z,125.22
2023-02-11T16:29:51.804Z,85.53
2023-02-11T16:32:21.304Z,68.75
2023-02-11T16:34:49.214Z,80.03
2023-02-11T16:37:18.066Z,60.88
2023-02-11T16:39:45.715Z,61.63
2023-02-11T16:42:13.676Z,63.80
2023-02-11T16:44:41.163Z,71.50
2023-02-11T16:47:18.259Z,71.90
2023-02-11T16:49:45.786Z,77.63
2023-02-11T16:52:15.371Z,68.45
2023-02-11T16:54:44.696Z,66.03
2023-02-11T16:57:15.600Z,62.58
2023-02-11T16:59:43.234Z,63.38
2023-02-11T17:02:16.635Z,62.85
2023-02-11T17:04:44.919Z,56.28
2023-02-11T17:07:12.946Z,70.72
2023-02-11T17:09:40.613Z,79.25
2023-02-11T17:12:09.500Z,61.92
2023-02-11T17:14:36.978Z,78.18
2023-02-11T17:17:05.281Z,59.65
2023-02-11T17:19:32.729Z,66.03
2023-02-11T17:22:00.187Z,75.13
2023-02-11T17:24:27.668Z,62.08
2023-02-11T17:26:55.697Z,74.97
2023-02-11T17:29:27.064Z,68.00
2023-02-11T17:31:54.931Z,62.45
2023-02-11T17:34:23.688Z,71.28
2023-02-11T17:36:51.709Z,71.72
2023-02-11T17:39:20.881Z,65.53
2023-02-11T17:41:48.372Z,82.30
2023-02-11T17:44:16.278Z,74.97
2023-02-11T17:46:45.201Z,66.47
2023-02-11T17:49:13.015Z,70.20
2023-02-11T17:51:41.306Z,63.47
2023-02-11T17:54:13.174Z,72.60
2023-02-11T17:56:40.811Z,69.05
2023-02-11T17:59:10.057Z,67.53
2023-02-11T18:01:39.030Z,64.25
2023-02-11T18:04:09.377Z,66.07
2023-02-11T18:06:37.343Z,68.72
2023-02-11T18:09:04.904Z,67.15
2023-02-11T18:11:34.959Z,70.78
2023-02-11T18:14:03.328Z,69.10
2023-02-11T18:16:31.450Z,69.45
2023-02-11T18:18:59.800Z,65.70
2023-02-11T18:21:28.681Z,66.63
2023-02-11T18:23:56.874Z,67.78
2023-02-11T18:26:27.902Z,74.93
2023-02-11T18:28:57.457Z,69.72
2023-02-11T18:31:25.345Z,63.78
2023-02-11T18:33:53.542Z,75.75
2023-02-11T18:36:22.006Z,72.05
2023-02-11T18:38:52.488Z,70.60
2023-02-11T18:41:20.039Z,75.38
2023-02-11T18:43:47.519Z,80.88
2023-02-11T18:46:16.081Z,77.35
2023-02-11T18:48:44.788Z,73.88
2023-02-11T18:51:14.610Z,84.50
2023-02-11T18:53:42.298Z,89.80
2023-02-11T18:56:14.586Z,79.95
2023-02-11T18:58:42.122Z,81.53
2023-02-11T19:01:15.025Z,81.03
2023-02-11T19:03:42.865Z,74.60
2023-02-11T19:06:15.421Z,81.75
2023-02-11T19:08:42.935Z,79.43
2023-02-11T19:11:11.747Z,76.88
2023-02-11T19:13:39.563Z,75.07
2023-02-11T19:16:11.220Z,82.07
2023-02-11T19:18:39.552Z,92.65
2023-02-11T19:21:08.518Z,81.65
2023-02-11T19:23:37.827Z,79.65
2023-02-11T19:26:06.331Z,89.97
2023-02-11T19:28:36.900Z,82.53
2023-02-11T19:31:08.637Z,92.43
2023-02-11T19:33:36.411Z,84.70
2023-02-11T19:36:06.119Z,88.82
2023-02-11T19:38:33.614Z,82.22
2023-02-11T19:41:01.232Z,81.30
2023-02-11T19:43:29.161Z,85.13
2023-02-11T19:45:58.419Z,86.35
2023-02-11T19:48:26.133Z,82.95
2023-02-11T19:50:54.488Z,84.18
2023-02-11T19:53:22.060Z,85.38
2023-02-11T19:55:50.116Z,84.32
2023-02-11T19:58:18.528Z,81.00
2023-02-11T20:00:46.184Z,90.70
2023-02-11T20:03:14.991Z,80.15
2023-02-11T20:05:46.937Z,81.47
2023-02-11T20:08:16.877Z,74.82
2023-02-11T20:10:44.396Z,80.30
2023-02-11T20:13:11.839Z,75.25
2023-02-11T20:15:39.441Z,89.43
2023-02-11T20:18:06.994Z,90.07
2023-02-11T20:20:37.267Z,77.70
2023-02-11T20:23:05.041Z,77.30
2023-02-11T20:25:32.477Z,79.15
2023-02-11T20:28:00.001Z,85.43
2023-02-11T20:30:27.513Z,84.05
2023-02-11T20:32:54.959Z,86.60
2023-02-11T20:35:22.436Z,80.82
2023-02-11T20:37:51.688Z,79.95
2023-02-11T20:40:19.565Z,89.82
2023-02-11T20:42:47.034Z,78.55
2023-02-11T20:45:14.524Z,91.05
2023-02-11T20:47:42.325Z,96.00
2023-02-11T20:50:10.664Z,84.63
2023-02-11T20:52:38.312Z,84.72
2023-02-11T20:55:07.328Z,89.15
2023-02-11T20:57:35.465Z,82.00
2023-02-11T21:00:03.170Z,87.75
2023-02-11T21:02:31.048Z,84.88
2023-02-11T21:04:58.493Z,84.55
2023-02-11T21:07:29.066Z,84.90
2023-02-11T21:09:56.752Z,89.10
2023-02-11T21:12:25.553Z,85.13
2023-02-11T21:14:54.785Z,87.22
2023-02-11T21:17:22.339Z,85.32
2023-02-11T21:19:49.821Z,92.20
2023-02-11T21:22:17.280Z,84.80
2023-02-11T21:24:44.736Z,86.75
2023-02-11T21:27:12.201Z,82.55
2023-02-11T21:29:53.462Z,84.93
2023-02-11T21:32:21.864Z,79.85
2023-02-11T21:34:49.429Z,83.80
2023-02-11T21:37:16.925Z,90.47
2023-02-11T21:39:44.400Z,92.15
2023-02-11T21:42:11.910Z,89.72
2023-02-11T21:44:40.679Z,78.72
2023-02-11T21:47:08.117Z,84.97
2023-02-11T21:49:35.587Z,76.30
2023-02-11T21:52:03.039Z,77.20
2023-02-11T21:54:31.976Z,85.75
2023-02-11T21:56:59.634Z,86.63
2023-02-11T21:59:29.158Z,81.47
2023-02-11T22:01:58.667Z,80.70
2023-02-11T22:04:26.466Z,74.90
2023-02-11T22:06:53.992Z,79.57
2023-02-11T22:09:21.448Z,82.95
2023-02-11T22:11:49.723Z,72.47
2023-02-11T22:14:17.439Z,79.40
2023-02-11T22:16:46.154Z,72.47
2023-02-11T22:19:15.388Z,72.00
2023-02-11T22:21:43.574Z,77.63
2023-02-11T22:24:11.148Z,79.20
2023-02-11T22:26:39.227Z,74.95
2023-02-11T22:29:06.702Z,76.32
2023-02-11T22:31:35.563Z,75.65
2023-02-11T22:34:04.596Z,78.63
2023-02-11T22:36:35.088Z,77.38
2023-02-11T22:39:04.533Z,75.05
2023-02-11T22:41:32.705Z,77.35
2023-02-11T22:44:00.186Z,70.18
2023-02-11T22:46:27.847Z,75.15
2023-02-11T22:48:55.354Z,70.15
2023-02-11T22:51:24.882Z,69.63
2023-02-11T22:53:55.420Z,72.15
2023-02-11T22:56:23.894Z,74.22
2023-02-11T22:58:52.153Z,65.28
2023-02-11T23:01:20.439Z,75.97
2023-02-11T23:03:47.916Z,70.93
2023-02-11T23:06:15.504Z,73.07
2023-02-11T23:08:43.751Z,70.45
2023-02-11T23:11:15.714Z,76.35
2023-02-11T23:13:44.427Z,75.18
2023-02-11T23:16:14.409Z,73.65
2023-02-11T23:18:43.623Z,76.07
2023-02-11T23:21:13.393Z,73.68
2023-02-11T23:23:40.952Z,75.97
2023-02-11T23:26:12.205Z,70.13
2023-02-11T23:28:40.591Z,66.88
2023-02-11T23:31:18.273Z,67.72
2023-02-11T23:33:46.883Z,71.72
2023-02-11T23:36:14.732Z,69.28
2023-02-11T23:38:42.285Z,70.13
2023-02-11T23:41:10.323Z,69.40
2023-02-11T23:43:39.512Z,74.55
2023-02-11T23:46:07.873Z,68.45
2023-02-11T23:48:35.862Z,66.55
2023-02-11T23:51:03.388Z,68.32
2023-02-11T23:53:31.062Z,70.20
2023-02-11T23:55:58.643Z,70.43
2023-02-11T23:58:26.236Z,71.57
